KBIE/BIE METAR and TAF weather

Enter ICAO airport designator
Station Type Date Time Source
KBIE METAR 2018/01/23 01:35 UTC NOAA

KBIE 230135Z AUTO 33025KT 7SM UP OVC014 M02/M03 A2983 RMK AO2 T10181035


Station Type Date Time Source
KBIE Decoded METAR 2018/01/23 01:35 UTC NOAA

Beatrice Municipal, NE, United States (KBIE) 40-18N 096-45W
Jan 22, 2018 - 08:35 PM EST / 2018.01.23 0135 UTC
Wind: from the NNW (330 degrees) at 29 MPH (25 KT):0
Visibility: 7 mile(s):0
Sky conditions: overcast
Weather: precipitation
Temperature: 28.8 F (-1.8 C)
Windchill: 14 F (-10 C):1
Dew Point: 25.7 F (-3.5 C)
Relative Humidity: 88%
Pressure (altimeter): 29.83 in. Hg (1010 hPa)
ob: KBIE 230135Z AUTO 33025KT 7SM UP OVC014 M02/M03 A2983 RMK AO2 T10181035
cycle: 1

Station Type Date Time Source
KBIE TAF UTC NOAA

Error!


Example: see airport list